aviador You're here:

KHYR Decoded Metar

HAYWARD in WI, USA
Report Time2018-07-23 14:53:00
UTC Time2018-07-23 15:44:35
Flight Rules vfr VFR
WindCalm
Visibility9999 m
Phenomena:N/A
Clouds:N/A
Expected CloudBase > 2,000 ft AGL from Temp-Dew spread
CeilingNone
Temp21°C (ISA +8)
Dew Point16°C (73% RH)
QNH1018 hPa
Density Alt2,274 ft
Elevation1,214 ft
Report Wrong Elevation
Raw Report
KHYR 231453Z AUTO 00000KT 10SM CLR 21/16 A3006 RMK AO2 SLP177
T02110156 58003=

Extra information for KHYR:More info

Metar Taf Metar & Taf Last 4 Metars F.Rules Stats Wind Profile Meteogram Temp Stats Airport Information Weather charts Add Link Nearby VenuesMetar ALERT Operation Metar Decoded Social comments

AIRNAV info for KHYR